createdAt,value
2024-01-21T00:02:24.335Z,1.90
2024-01-21T00:06:26.498Z,1.15
2024-01-21T00:10:28.631Z,1.42
2024-01-21T00:14:30.764Z,0.50
2024-01-21T00:18:33.007Z,0.75
2024-01-21T00:22:35.503Z,9.18
2024-01-21T00:26:37.839Z,3.28
2024-01-21T00:30:41.285Z,1.52
2024-01-21T00:34:43.910Z,1.20
2024-01-21T00:38:46.667Z,2.45
2024-01-21T00:42:49.170Z,1.50
2024-01-21T00:46:52.123Z,1.83
2024-01-21T00:50:54.224Z,2.08
2024-01-21T00:54:56.627Z,1.65
2024-01-21T00:58:58.762Z,2.53
2024-01-21T01:03:01.071Z,0.52
2024-01-21T01:07:03.537Z,2.38
2024-01-21T01:11:05.733Z,3.42
2024-01-21T01:15:12.416Z,0.80
2024-01-21T01:19:14.725Z,1.35
2024-01-21T01:23:16.860Z,4.50
2024-01-21T01:27:19.149Z,3.30
2024-01-21T01:31:22.240Z,1.98
2024-01-21T01:35:26.881Z,3.97
2024-01-21T01:43:31.419Z,1.88
2024-01-21T01:47:34.322Z,0.80
2024-01-21T01:51:37.965Z,2.05
2024-01-21T01:55:40.305Z,1.45
2024-01-21T01:59:42.628Z,1.05
2024-01-21T02:03:46.581Z,0.60
2024-01-21T02:07:48.814Z,2.17
2024-01-21T02:11:51.194Z,1.00
2024-01-21T02:15:53.416Z,0.77
2024-01-21T02:19:55.513Z,2.70
2024-01-21T02:23:57.661Z,0.55
2024-01-21T02:27:59.727Z,1.08
2024-01-21T02:32:01.922Z,1.52
2024-01-21T02:36:04.250Z,1.05
2024-01-21T02:40:06.966Z,11.73
2024-01-21T02:44:09.120Z,0.20
2024-01-21T02:48:11.448Z,1.17
2024-01-21T02:52:13.635Z,1.27
2024-01-21T02:56:26.773Z,1.98
2024-01-21T03:00:28.957Z,0.73
2024-01-21T03:04:31.101Z,0.20
2024-01-21T03:08:33.460Z,3.42
2024-01-21T03:12:37.443Z,0.70
2024-01-21T03:16:39.561Z,1.08
2024-01-21T03:20:41.691Z,0.38
2024-01-21T03:24:43.898Z,0.93
2024-01-21T03:28:46.022Z,0.28
2024-01-21T03:32:48.237Z,1.58
2024-01-21T03:36:50.482Z,1.52
2024-01-21T03:40:52.618Z,2.28
2024-01-21T03:44:54.744Z,1.30
2024-01-21T03:48:57.029Z,2.60
2024-01-21T03:53:00.272Z,1.10
2024-01-21T03:57:02.401Z,0.95
2024-01-21T04:01:05.065Z,1.45
2024-01-21T04:05:08.215Z,4.75
2024-01-21T04:09:11.484Z,1.48
2024-01-21T04:13:13.751Z,0.82
2024-01-21T04:17:15.972Z,1.95
2024-01-21T04:21:18.792Z,0.50
2024-01-21T04:25:20.874Z,2.10
2024-01-21T04:29:23.007Z,0.52
2024-01-21T04:33:25.175Z,1.77
2024-01-21T04:37:27.277Z,1.55
2024-01-21T04:41:29.443Z,3.10
2024-01-21T04:45:31.590Z,0.88
2024-01-21T04:49:33.872Z,2.92
2024-01-21T04:53:38.929Z,0.90
2024-01-21T04:57:41.452Z,1.30
2024-01-21T05:01:44.045Z,2.63
2024-01-21T05:05:46.165Z,1.00
2024-01-21T05:09:48.346Z,3.00
2024-01-21T05:13:52.211Z,1.77
2024-01-21T05:17:57.809Z,1.73
2024-01-21T05:21:59.995Z,0.85
2024-01-21T05:26:02.143Z,2.63
2024-01-21T05:30:07.977Z,0.98
2024-01-21T05:34:14.786Z,1.83
2024-01-21T05:38:26.328Z,1.13
2024-01-21T05:42:34.745Z,0.93
2024-01-21T05:46:42.938Z,0.90
2024-01-21T05:50:50.296Z,4.63
2024-01-21T05:54:59.119Z,5.13
2024-01-21T05:59:07.098Z,2.78
2024-01-21T06:03:14.783Z,3.17
2024-01-21T06:07:22.435Z,1.40
2024-01-21T06:11:27.553Z,0.57
2024-01-21T06:15:29.703Z,1.02
2024-01-21T06:19:31.930Z,0.68
2024-01-21T06:23:34.079Z,0.40
2024-01-21T06:27:36.283Z,1.95
2024-01-21T06:31:38.457Z,0.38
2024-01-21T06:35:40.983Z,1.40
2024-01-21T06:39:51.077Z,1.52
2024-01-21T06:43:59.265Z,2.08
2024-01-21T06:48:01.486Z,0.80
2024-01-21T06:52:05.764Z,0.95
2024-01-21T06:56:10.974Z,1.25
2024-01-21T07:00:13.898Z,0.77
2024-01-21T07:04:16.566Z,2.50
2024-01-21T07:08:20.034Z,0.65
2024-01-21T07:12:22.096Z,2.15
2024-01-21T07:16:24.284Z,1.75
2024-01-21T07:20:26.377Z,0.68
2024-01-21T07:24:28.533Z,0.52
2024-01-21T07:28:30.695Z,0.85
2024-01-21T07:32:32.896Z,3.63
2024-01-21T07:36:35.053Z,0.63
2024-01-21T07:40:37.144Z,1.40
2024-01-21T07:44:39.384Z,0.60
2024-01-21T07:48:41.568Z,0.57
2024-01-21T07:52:44.195Z,0.65
2024-01-21T07:56:46.445Z,1.02
2024-01-21T08:00:48.966Z,1.77
2024-01-21T08:04:51.115Z,3.55
2024-01-21T08:08:53.186Z,4.07
2024-01-21T08:12:55.609Z,3.13
2024-01-21T08:16:57.733Z,0.73
2024-01-21T08:20:59.839Z,1.38
2024-01-21T08:25:02.653Z,2.78
2024-01-21T08:29:05.062Z,2.60
2024-01-21T08:33:07.242Z,1.48
2024-01-21T08:37:09.735Z,2.45
2024-01-21T08:41:12.885Z,2.70
2024-01-21T08:45:15.315Z,1.58
2024-01-21T08:49:17.969Z,0.68
2024-01-21T08:53:22.117Z,3.58
2024-01-21T08:57:24.299Z,2.10
2024-01-21T09:01:26.712Z,1.10
2024-01-21T09:05:29.766Z,1.80
2024-01-21T09:09:32.553Z,0.90
2024-01-21T09:13:35.075Z,2.80
2024-01-21T09:17:37.327Z,0.90
2024-01-21T09:21:39.538Z,1.67
2024-01-21T09:25:41.732Z,6.03
2024-01-21T09:29:45.161Z,1.20
2024-01-21T09:33:47.486Z,3.78
2024-01-21T09:37:49.968Z,2.28
2024-01-21T09:41:53.484Z,4.82
2024-01-21T09:45:58.455Z,2.22
2024-01-21T09:50:00.726Z,2.33
2024-01-21T09:54:06.113Z,1.42
2024-01-21T09:58:14.700Z,0.98
2024-01-21T10:02:17.996Z,2.47
2024-01-21T10:06:20.604Z,1.50
2024-01-21T10:10:22.827Z,1.85
2024-01-21T10:14:33.013Z,0.77
2024-01-21T10:18:36.187Z,2.05
2024-01-21T10:22:38.677Z,1.40
2024-01-21T10:26:44.388Z,0.98
2024-01-21T10:30:46.778Z,1.02
2024-01-21T10:34:53.784Z,1.65
2024-01-21T10:38:56.636Z,3.42
2024-01-21T10:43:00.730Z,2.97
2024-01-21T10:47:03.915Z,3.58
2024-01-21T10:51:07.430Z,3.08
2024-01-21T10:55:09.935Z,2.30
2024-01-21T10:59:12.446Z,3.03
2024-01-21T11:03:26.529Z,1.98
2024-01-21T11:07:31.345Z,1.55
2024-01-21T11:11:43.056Z,1.95
2024-01-21T11:15:49.036Z,1.38
2024-01-21T11:19:55.923Z,1.95
2024-01-21T11:24:06.428Z,3.70
2024-01-21T11:28:27.896Z,1.65
2024-01-21T11:32:32.066Z,4.43
2024-01-21T11:36:34.862Z,2.47
2024-01-21T11:40:36.996Z,1.90
2024-01-21T11:44:41.167Z,2.17
2024-01-21T11:48:43.336Z,4.13
2024-01-21T11:52:46.588Z,1.13
2024-01-21T11:56:48.997Z,0.63
2024-01-21T12:00:51.398Z,0.50
2024-01-21T12:04:56.209Z,7.03
2024-01-21T12:09:01.084Z,2.78
2024-01-21T12:13:06.840Z,1.08
2024-01-21T12:17:09.140Z,1.05
2024-01-21T12:21:14.833Z,0.93
2024-01-21T12:25:18.694Z,1.15
2024-01-21T12:29:21.584Z,2.05
2024-01-21T12:33:24.016Z,2.42
2024-01-21T12:37:26.304Z,1.70
2024-01-21T12:41:28.629Z,1.35
2024-01-21T12:45:30.814Z,3.55
2024-01-21T12:49:33.463Z,0.90
2024-01-21T12:53:35.777Z,19.77
2024-01-21T12:57:38.099Z,3.53
2024-01-21T13:01:41.346Z,0.85
2024-01-21T13:05:44.003Z,6.80
2024-01-21T13:09:46.864Z,2.38
2024-01-21T13:13:49.185Z,1.10
2024-01-21T13:17:52.470Z,1.90
2024-01-21T13:21:54.682Z,2.05
2024-01-21T13:25:56.998Z,4.10
2024-01-21T13:30:18.197Z,2.33
2024-01-21T13:34:20.614Z,2.75
2024-01-21T13:38:31.629Z,1.58
2024-01-21T13:42:34.296Z,1.95
2024-01-21T13:46:36.466Z,1.42
2024-01-21T13:50:42.116Z,1.42
2024-01-21T13:54:46.700Z,0.45
2024-01-21T13:58:48.940Z,1.92
2024-01-21T14:02:57.046Z,1.73
2024-01-21T14:06:59.503Z,2.83
2024-01-21T14:11:01.769Z,1.95
2024-01-21T14:15:04.556Z,2.05
2024-01-21T14:19:07.072Z,1.30
2024-01-21T14:23:09.246Z,1.15
2024-01-21T14:27:11.713Z,1.65
2024-01-21T14:31:14.148Z,3.60
2024-01-21T14:35:16.400Z,1.60
2024-01-21T14:39:19.086Z,1.13
2024-01-21T14:43:21.289Z,1.55
2024-01-21T14:47:23.614Z,1.83
2024-01-21T14:51:25.812Z,0.90
2024-01-21T14:55:27.968Z,0.85
2024-01-21T14:59:34.416Z,0.82
2024-01-21T15:03:36.644Z,1.15
2024-01-21T15:07:42.393Z,1.45
2024-01-21T15:11:47.333Z,1.65
2024-01-21T15:15:49.595Z,0.60
2024-01-21T15:19:51.834Z,0.93
2024-01-21T15:23:53.996Z,1.80
2024-01-21T15:27:56.700Z,3.38
2024-01-21T15:31:59.151Z,5.90
2024-01-21T15:36:01.339Z,4.18
2024-01-21T15:40:05.301Z,1.38
2024-01-21T15:44:07.566Z,1.25
2024-01-21T15:48:10.321Z,1.73
2024-01-21T15:52:12.911Z,1.73
2024-01-21T15:56:15.021Z,1.70
2024-01-21T16:00:18.401Z,0.70
2024-01-21T16:04:20.819Z,1.00
2024-01-21T16:08:23.141Z,0.15
2024-01-21T16:12:25.577Z,0.40
2024-01-21T16:16:27.838Z,1.40
2024-01-21T16:20:32.306Z,3.08
2024-01-21T16:24:36.391Z,2.08
2024-01-21T16:28:38.608Z,1.60
2024-01-21T16:32:40.871Z,1.00
2024-01-21T16:36:43.296Z,0.40
2024-01-21T16:40:45.650Z,0.93
2024-01-21T16:44:47.925Z,0.80
2024-01-21T16:48:50.280Z,0.90
2024-01-21T16:52:58.170Z,0.57
2024-01-21T16:57:00.545Z,0.73
2024-01-21T17:01:07.529Z,0.40
2024-01-21T17:05:10.190Z,0.47
2024-01-21T17:09:12.782Z,3.75
2024-01-21T17:13:15.220Z,3.65
2024-01-21T17:17:20.075Z,1.25
2024-01-21T17:21:22.211Z,6.30
2024-01-21T17:25:24.652Z,5.63
2024-01-21T17:29:26.970Z,16.20
2024-01-21T17:33:30.384Z,5.07
2024-01-21T17:37:33.197Z,6.85
2024-01-21T17:41:35.467Z,5.18
2024-01-21T17:45:38.051Z,8.73
2024-01-21T17:49:40.385Z,9.57
2024-01-21T17:53:42.742Z,21.63
2024-01-21T17:57:44.997Z,11.05
2024-01-21T18:01:47.228Z,10.52
2024-01-21T18:05:49.587Z,5.68
2024-01-21T18:09:52.161Z,6.07
2024-01-21T18:13:54.295Z,5.95
2024-01-21T18:17:56.463Z,5.40
2024-01-21T18:21:59.810Z,25.50
2024-01-21T18:26:02.027Z,10.80
2024-01-21T18:30:04.860Z,15.93
2024-01-21T18:34:08.033Z,20.88
2024-01-21T18:38:10.558Z,13.80
2024-01-21T18:42:12.749Z,14.52
2024-01-21T18:46:14.998Z,10.20
2024-01-21T18:50:17.831Z,12.45
2024-01-21T18:54:20.807Z,11.82
2024-01-21T18:58:27.712Z,22.90
2024-01-21T19:02:30.411Z,9.85
2024-01-21T19:06:32.578Z,13.65
2024-01-21T19:10:35.277Z,14.13
2024-01-21T19:14:37.593Z,27.48
2024-01-21T19:18:42.709Z,16.30
2024-01-21T19:22:46.504Z,19.65
2024-01-21T19:26:48.749Z,8.68
2024-01-21T19:30:50.851Z,14.82
2024-01-21T19:34:54.884Z,9.40
2024-01-21T19:38:57.239Z,10.63
2024-01-21T19:42:59.583Z,12.50
2024-01-21T19:47:01.749Z,12.65
2024-01-21T19:51:06.007Z,18.75
2024-01-21T19:55:10.389Z,12.93
2024-01-21T19:59:14.163Z,8.98
2024-01-21T20:03:16.409Z,17.98
2024-01-21T20:07:23.038Z,27.83
2024-01-21T20:11:25.557Z,11.73
2024-01-21T20:15:28.260Z,14.00
2024-01-21T20:19:30.575Z,12.77
2024-01-21T20:23:34.058Z,13.00
2024-01-21T20:27:37.416Z,13.88
2024-01-21T20:31:39.629Z,17.40
2024-01-21T20:35:41.892Z,15.80
2024-01-21T20:39:44.790Z,26.35
2024-01-21T20:43:48.495Z,10.07
2024-01-21T20:47:50.779Z,11.88
2024-01-21T20:51:53.135Z,10.68
2024-01-21T20:55:56.651Z,12.18
2024-01-21T20:59:58.885Z,11.93
2024-01-21T21:04:02.437Z,9.85
2024-01-21T21:08:06.638Z,14.10
2024-01-21T21:12:09.347Z,11.77
2024-01-21T21:16:14.179Z,8.07
2024-01-21T21:20:17.176Z,12.15
2024-01-21T21:24:20.053Z,9.77
2024-01-21T21:28:22.493Z,14.00
2024-01-21T21:32:25.484Z,9.20
2024-01-21T21:36:27.860Z,9.57
2024-01-21T21:40:30.108Z,9.38
2024-01-21T21:44:32.312Z,13.40
2024-01-21T21:48:34.604Z,9.93
2024-01-21T21:52:37.094Z,7.22
2024-01-21T21:56:39.767Z,9.38
2024-01-21T22:00:43.189Z,7.90
2024-01-21T22:04:50.239Z,9.70
2024-01-21T22:08:58.660Z,11.48
2024-01-21T22:13:02.883Z,8.93
2024-01-21T22:17:05.879Z,10.65
2024-01-21T22:21:17.634Z,7.40
2024-01-21T22:25:20.634Z,6.72
2024-01-21T22:29:23.320Z,8.68
2024-01-21T22:33:25.763Z,8.23
2024-01-21T22:37:28.562Z,8.15
2024-01-21T22:41:34.057Z,8.88
2024-01-21T22:45:38.391Z,5.70
2024-01-21T22:49:42.802Z,8.05
2024-01-21T22:53:49.909Z,6.63
2024-01-21T22:57:52.189Z,6.10
2024-01-21T23:01:54.302Z,5.63
2024-01-21T23:05:56.962Z,5.95
2024-01-21T23:09:59.426Z,5.03
2024-01-21T23:14:01.858Z,4.07
2024-01-21T23:18:04.034Z,6.72
2024-01-21T23:22:06.189Z,4.15
2024-01-21T23:26:08.764Z,8.25
2024-01-21T23:30:11.426Z,2.30
2024-01-21T23:34:14.062Z,3.03
2024-01-21T23:38:16.547Z,7.68
2024-01-21T23:42:18.777Z,4.57
2024-01-21T23:46:24.144Z,4.68
2024-01-21T23:50:26.789Z,4.32
2024-01-21T23:54:29.381Z,2.95
2024-01-21T23:58:34.054Z,4.43
